Time;durP1;ratioP1;P1;durP2;ratioP2;P2;SDS_P1;SDS_P2;PMS_P1;PMS_P2;Temp;Humidity;BMP_temperature;BMP_pressure;BME280_temperature;BME280_humidity;BME280_pressure;Samples;Min_cycle;Max_cycle;Signal;HPM_P1;HPM_P2
2022/04/21 00:00:13;;;;;;;21.27;17.50;;;;;;;2.21;77.53;96096.39;1614618;87;21390;-79
2022/04/21 00:02:41;;;;;;;24.10;17.65;;;;;;;2.17;77.56;96095.86;1640362;87;21055;-79
2022/04/21 00:05:08;;;;;;;19.12;15.88;;;;;;;2.17;77.55;96096.33;1640688;87;21308;-79
2022/04/21 00:07:34;;;;;;;18.37;15.68;;;;;;;2.17;77.51;96090.73;1640453;87;21042;-79
2022/04/21 00:09:59;;;;;;;20.77;16.15;;;;;;;2.18;77.51;96097.48;1640555;87;21054;-79
2022/04/21 00:12:25;;;;;;;19.73;16.40;;;;;;;2.17;77.52;96097.14;1640663;87;21435;-79
2022/04/21 00:14:51;;;;;;;20.72;16.80;;;;;;;2.15;77.56;96098.23;1640565;87;20936;-79
2022/04/21 00:17:17;;;;;;;22.30;17.23;;;;;;;2.12;77.66;96098.03;1640655;87;21022;-79
2022/04/21 00:19:42;;;;;;;21.82;17.70;;;;;;;2.11;77.78;96096.38;1640505;87;21078;-79
2022/04/21 00:24:53;;;;;;;22.87;16.57;;;;;;;2.09;77.75;96099.56;1640649;87;21114;-79
2022/04/21 00:27:18;;;;;;;21.07;16.35;;;;;;;2.12;77.73;96096.75;1640522;87;21031;-79
2022/04/21 00:29:44;;;;;;;18.60;15.78;;;;;;;2.13;77.74;96097.56;1640127;87;21006;-79
2022/04/21 00:32:10;;;;;;;19.15;16.07;;;;;;;2.10;77.79;96098.14;1640217;87;21504;-79
2022/04/21 00:34:37;;;;;;;17.15;14.53;;;;;;;2.10;77.87;96097.33;1640162;87;20974;-79
2022/04/21 00:37:03;;;;;;;20.97;16.20;;;;;;;2.06;77.92;96103.21;1640493;87;21071;-79
2022/04/21 00:39:31;;;;;;;20.57;15.30;;;;;;;2.03;78.00;96107.33;1640458;87;21062;-79
2022/04/21 00:41:58;;;;;;;19.20;15.58;;;;;;;2.01;78.02;96100.73;1640616;87;21039;-79
2022/04/21 00:44:28;;;;;;;18.23;14.75;;;;;;;2.01;78.00;96099.45;1640192;86;21026;-80
2022/04/21 00:46:55;;;;;;;15.75;14.03;;;;;;;2.02;78.00;96100.59;1640372;87;21019;-79
2022/04/21 00:49:21;;;;;;;15.78;13.25;;;;;;;2.01;78.16;96095.60;1640303;87;21046;-79
2022/04/21 00:51:50;;;;;;;16.62;14.68;;;;;;;2.00;78.32;96095.27;1640571;87;21425;-79
2022/04/21 00:54:17;;;;;;;16.70;13.62;;;;;;;1.97;78.40;96096.35;1640565;87;20995;-79
2022/04/21 00:56:42;;;;;;;18.48;14.58;;;;;;;1.95;78.58;96098.25;1640420;87;21388;-79
2022/04/21 00:59:10;;;;;;;17.30;14.63;;;;;;;1.94;78.67;96098.35;1640358;87;20983;-79
2022/04/21 01:04:21;;;;;;;16.77;14.63;;;;;;;1.98;78.71;96095.88;1640449;87;21090;-80
2022/04/21 01:06:46;;;;;;;17.60;15.60;;;;;;;1.99;78.74;96088.53;1640550;87;21058;-80
2022/04/21 01:09:12;;;;;;;21.02;16.73;;;;;;;1.99;78.77;96091.89;1640349;87;21117;-80
2022/04/21 01:11:39;;;;;;;23.85;17.42;;;;;;;1.96;78.83;96087.52;1640532;87;21408;-80
2022/04/21 01:14:04;;;;;;;19.92;17.77;;;;;;;1.94;78.89;96086.82;1640378;87;20955;-80
2022/04/21 01:16:31;;;;;;;20.68;16.77;;;;;;;1.92;78.88;96095.12;1640165;87;21099;-80
2022/04/21 01:18:56;;;;;;;21.15;16.30;;;;;;;1.91;78.82;96094.78;1640411;87;21527;-79
2022/04/21 01:21:22;;;;;;;21.30;16.95;;;;;;;1.92;78.75;96098.48;1640073;87;21082;-80
2022/04/21 01:23:48;;;;;;;20.00;15.40;;;;;;;1.93;78.69;96104.42;1640466;87;21118;-80
2022/04/21 01:26:15;;;;;;;18.75;14.65;;;;;;;1.91;78.67;96102.47;1640473;87;21046;-79
2022/04/21 01:28:41;;;;;;;18.85;15.50;;;;;;;1.87;78.70;96101.94;1640248;87;21022;-80
2022/04/21 01:31:07;;;;;;;18.67;15.00;;;;;;;1.83;78.74;96102.35;1640605;87;21043;-80
2022/04/21 01:33:32;;;;;;;18.85;16.07;;;;;;;1.79;78.81;96103.09;1622496;87;21000;-80
2022/04/21 01:35:58;;;;;;;19.23;14.60;;;;;;;1.77;78.78;96104.95;1612984;87;21354;-80
2022/04/21 01:41:14;;;;;;;18.32;15.05;;;;;;;1.78;78.71;96104.81;1628406;86;21007;-80
2022/04/21 01:43:43;;;;;;;18.23;15.40;;;;;;;1.77;78.72;96103.20;1625780;87;20987;-80
2022/04/21 01:46:11;;;;;;;18.77;14.40;;;;;;;1.76;78.78;96105.43;1612916;88;21076;-80
2022/04/21 01:48:36;;;;;;;19.05;14.95;;;;;;;1.73;78.85;96103.61;1612232;87;21031;-80
2022/04/21 01:51:02;;;;;;;19.52;15.68;;;;;;;1.72;78.90;96100.24;1612854;89;21103;-80
2022/04/21 01:53:28;;;;;;;19.05;15.15;;;;;;;1.73;78.85;96102.33;1612942;89;21047;-79
2022/04/21 01:55:54;;;;;;;17.15;14.53;;;;;;;1.73;78.80;96098.02;1612976;87;21351;-80
2022/04/21 01:58:20;;;;;;;17.17;15.30;;;;;;;1.75;78.79;96092.76;1612948;89;21059;-80
2022/04/21 02:00:46;;;;;;;17.52;14.83;;;;;;;1.75;78.82;96090.20;1614941;87;21035;-80
2022/04/21 02:03:12;;;;;;;17.82;15.28;;;;;;;1.73;78.89;96097.21;1640492;87;21058;-79
2022/04/21 02:05:38;;;;;;;19.65;15.65;;;;;;;1.70;78.98;96094.45;1640345;87;21019;-79
2022/04/21 02:08:04;;;;;;;18.67;15.95;;;;;;;1.69;79.12;96093.30;1640405;87;21027;-79
2022/04/21 02:10:30;;;;;;;18.90;16.15;;;;;;;1.69;79.15;96092.02;1640678;87;20991;-79
2022/04/21 02:12:57;;;;;;;16.97;13.93;;;;;;;1.69;79.17;96093.30;1640488;87;21051;-80
2022/04/21 02:15:23;;;;;;;20.02;15.90;;;;;;;1.70;79.26;96095.73;1640327;87;21031;-80
2022/04/21 02:17:49;;;;;;;18.70;15.23;;;;;;;1.70;79.38;96091.89;1636144;87;20987;-80
2022/04/21 02:20:15;;;;;;;19.10;16.00;;;;;;;1.70;79.51;96091.08;1614127;88;21050;-79
2022/04/21 02:22:45;;;;;;;19.27;16.12;;;;;;;1.67;79.63;96096.00;1614278;87;21419;-79
2022/04/21 02:25:12;;;;;;;18.45;16.07;;;;;;;1.66;79.74;96091.02;1614243;89;21020;-79
2022/04/21 02:27:40;;;;;;;18.65;15.18;;;;;;;1.65;79.77;96090.20;1635597;87;20987;-79
2022/04/21 02:30:08;;;;;;;18.87;15.03;;;;;;;1.66;79.71;96089.27;1640486;87;21458;-80
2022/04/21 02:32:35;;;;;;;18.23;15.63;;;;;;;1.67;79.69;96087.04;1624623;87;21039;-80
2022/04/21 02:35:02;;;;;;;17.80;14.87;;;;;;;1.68;79.75;96093.78;1607194;87;20964;-79
2022/04/21 02:37:30;;;;;;;17.57;15.23;;;;;;;1.65;79.78;96089.41;1614214;87;20992;-79
2022/04/21 02:39:56;;;;;;;17.87;15.23;;;;;;;1.63;79.86;96092.09;1615935;87;21079;-79
2022/04/21 02:42:22;;;;;;;16.40;14.05;;;;;;;1.61;79.95;96088.03;1640522;87;21038;-79
2022/04/21 02:44:48;;;;;;;18.60;15.20;;;;;;;1.63;79.96;96092.09;1640314;87;21102;-79
2022/04/21 02:47:14;;;;;;;17.35;14.18;;;;;;;1.63;79.91;96088.25;1634255;87;21483;-80
2022/04/21 02:49:45;;;;;;;18.50;15.40;;;;;;;1.65;79.89;96086.37;1624186;87;21426;-80
2022/04/21 02:52:10;;;;;;;18.45;14.78;;;;;;;1.66;79.93;96085.42;1573162;89;21083;-80
2022/04/21 02:57:22;;;;;;;21.33;16.40;;;;;;;1.65;79.98;96079.16;1613014;89;21039;-79
2022/04/21 02:59:57;;;;;;;20.88;15.43;;;;;;;1.63;80.01;96079.30;1614791;87;21031;-80
2022/04/21 03:02:22;;;;;;;17.45;15.50;;;;;;;1.63;79.95;96078.48;1597051;87;21007;-80
2022/04/21 03:04:49;;;;;;;18.62;16.20;;;;;;;1.64;79.87;96075.78;1596447;87;21377;-80
2022/04/21 03:07:17;;;;;;;19.23;16.57;;;;;;;1.65;79.85;96074.03;1596260;90;21010;-80
2022/04/21 03:09:44;;;;;;;20.45;16.62;;;;;;;1.65;79.93;96072.28;1596331;90;21453;-80
2022/04/21 03:12:10;;;;;;;16.65;14.47;;;;;;;1.63;79.96;96068.24;1596343;90;21109;-80
2022/04/21 03:14:39;;;;;;;19.77;15.28;;;;;;;1.59;80.00;96064.31;1602456;87;21003;-80
2022/04/21 03:17:05;;;;;;;16.65;14.47;;;;;;;1.56;79.99;96059.45;1614317;87;21057;-80
2022/04/21 03:19:32;;;;;;;19.87;14.45;;;;;;;1.56;79.93;96062.83;1614575;87;21016;-80
2022/04/21 03:24:42;;;;;;;16.80;13.80;;;;;;;1.55;79.91;96074.02;1612562;87;21032;-79
2022/04/21 03:27:08;;;;;;;18.25;14.28;;;;;;;1.50;79.83;96082.10;1612907;89;21421;-80
2022/04/21 03:29:40;;;;;;;19.67;16.02;;;;;;;1.46;79.90;96076.92;1612992;89;21027;-79
2022/04/21 03:32:10;;;;;;;18.12;14.33;;;;;;;1.42;79.96;96069.61;1628553;87;20945;-79
2022/04/21 03:34:40;;;;;;;20.20;14.95;;;;;;;1.41;79.93;96057.28;1640366;87;21411;-80
2022/04/21 03:37:06;;;;;;;20.90;15.65;;;;;;;1.42;79.88;96049.94;1640528;87;21410;-80
2022/04/21 03:39:32;;;;;;;19.62;15.85;;;;;;;1.44;79.94;96053.17;1640490;87;21039;-80
2022/04/21 03:41:57;;;;;;;16.62;14.65;;;;;;;1.45;80.04;96048.86;1638193;87;21156;-79
2022/04/21 03:44:23;;;;;;;18.05;15.13;;;;;;;1.44;80.06;96049.80;1612912;87;20960;-80
2022/04/21 03:46:49;;;;;;;19.80;15.80;;;;;;;1.41;80.07;96047.52;1612864;88;21438;-79
2022/04/21 03:49:15;;;;;;;19.02;14.75;;;;;;;1.41;80.05;96046.23;1613089;89;21058;-79
2022/04/21 03:51:41;;;;;;;19.85;14.95;;;;;;;1.42;80.06;96052.97;1612828;89;21095;-79
2022/04/21 03:54:07;;;;;;;16.37;13.03;;;;;;;1.42;80.06;96058.09;1612958;89;21003;-79
2022/04/21 03:56:33;;;;;;;16.07;14.13;;;;;;;1.41;80.04;96059.04;1612998;89;21070;-79
2022/04/21 03:58:59;;;;;;;17.20;14.70;;;;;;;1.41;80.09;96057.28;1613033;89;21043;-80
2022/04/21 04:01:24;;;;;;;18.10;14.33;;;;;;;1.38;80.17;96044.76;1613649;87;21039;-80
2022/04/21 04:03:50;;;;;;;18.45;15.78;;;;;;;1.39;80.21;96041.73;1613068;87;21056;-79
2022/04/21 04:11:44;;;;;;;16.67;14.70;;;;;;;1.51;80.34;96059.87;1613658;87;21047;-80
2022/04/21 04:14:10;;;;;;;17.35;14.25;;;;;;;1.53;80.36;96052.86;1613837;87;20994;-80
2022/04/21 04:16:36;;;;;;;17.27;14.58;;;;;;;1.55;80.44;96060.41;1614370;87;21370;-80
2022/04/21 04:19:07;;;;;;;19.27;15.90;;;;;;;1.55;80.48;96061.69;1614210;89;21090;-79
2022/04/21 04:21:37;;;;;;;18.73;15.13;;;;;;;1.56;80.52;96065.86;1614065;88;21114;-79
2022/04/21 04:24:03;;;;;;;16.52;13.88;;;;;;;1.58;80.53;96068.63;1614230;88;21058;-79
2022/04/21 04:26:30;;;;;;;15.58;13.98;;;;;;;1.62;80.51;96069.97;1614363;87;21062;-80
2022/04/21 04:28:56;;;;;;;16.17;14.20;;;;;;;1.66;80.48;96071.81;1596461;89;21328;-80
2022/04/21 04:31:22;;;;;;;17.67;14.55;;;;;;;1.68;80.53;96072.48;1621211;87;20980;-80
2022/04/21 04:33:48;;;;;;;17.95;14.98;;;;;;;1.69;80.54;96074.09;1640407;87;21004;-79
2022/04/21 04:36:16;;;;;;;17.75;14.23;;;;;;;1.70;80.60;96083.39;1616067;87;21114;-79
2022/04/21 04:38:41;;;;;;;17.62;14.05;;;;;;;1.71;80.62;96081.17;1614310;89;21045;-79
2022/04/21 04:43:51;;;;;;;19.45;14.55;;;;;;;1.80;80.64;96079.91;1614478;89;21094;-80
2022/04/21 04:46:35;;;;;;;18.90;16.00;;;;;;;1.87;80.61;96087.04;1614232;88;21166;-79
2022/04/21 04:49:09;;;;;;;19.80;15.70;;;;;;;1.92;80.74;96095.93;1614388;89;21106;-80
2022/04/21 04:51:40;;;;;;;18.23;14.23;;;;;;;1.95;80.90;96101.25;1614352;89;21109;-79
2022/04/21 04:54:06;;;;;;;17.92;15.93;;;;;;;1.98;81.09;96099.25;1614374;89;21350;-80
2022/04/21 04:56:33;;;;;;;19.27;16.05;;;;;;;2.01;81.25;96096.41;1614442;87;21016;-80
2022/04/21 04:58:59;;;;;;;17.02;15.18;;;;;;;2.06;81.31;96092.95;1615794;87;21409;-80
2022/04/21 05:01:40;;;;;;;16.37;13.88;;;;;;;2.14;81.35;96087.64;1613459;87;21042;-80
2022/04/21 05:04:06;;;;;;;16.15;13.60;;;;;;;2.21;81.38;96085.66;1613051;89;21051;-80
2022/04/21 05:06:39;;;;;;;17.02;13.88;;;;;;;2.30;81.33;96084.05;1612893;87;21476;-79
2022/04/21 05:09:06;;;;;;;15.98;13.00;;;;;;;2.35;81.33;96088.27;1612997;89;21115;-79
2022/04/21 05:11:34;;;;;;;15.68;13.55;;;;;;;2.37;81.46;96091.03;1616042;87;20948;-80
2022/04/21 05:14:01;;;;;;;16.85;13.83;;;;;;;2.40;81.65;96079.69;1614220;87;21015;-80
2022/04/21 05:16:27;;;;;;;15.40;13.48;;;;;;;2.45;81.78;96078.01;1613784;87;21341;-80
2022/04/21 05:18:53;;;;;;;14.25;12.82;;;;;;;2.51;81.80;96080.01;1614021;87;21023;-80
2022/04/21 05:21:20;;;;;;;14.47;12.95;;;;;;;2.59;81.84;96083.47;1613792;87;21050;-80
2022/04/21 05:23:47;;;;;;;13.78;12.18;;;;;;;2.69;81.99;96080.89;1614331;89;21006;-80
2022/04/21 05:26:15;;;;;;;12.85;11.38;;;;;;;2.81;82.18;96077.21;1616165;87;21048;-80
2022/04/21 05:28:44;;;;;;;15.20;11.90;;;;;;;2.92;82.10;96078.30;1613726;87;21327;-80
2022/04/21 05:31:11;;;;;;;14.00;12.60;;;;;;;3.03;82.21;96080.36;1620698;87;21428;-80
2022/04/21 05:33:38;;;;;;;13.10;11.80;;;;;;;3.11;82.34;96086.41;1614722;87;21480;-80
2022/04/21 05:36:05;;;;;;;12.30;11.05;;;;;;;3.21;82.29;96081.20;1614933;87;21012;-80
2022/04/21 05:38:31;;;;;;;13.95;11.22;;;;;;;3.30;82.25;96088.06;1612769;87;21031;-80
2022/04/21 05:40:58;;;;;;;12.85;11.50;;;;;;;3.41;82.27;96083.98;1612560;87;21046;-80
2022/04/21 05:43:43;;;;;;;11.97;10.82;;;;;;;3.54;81.98;96083.64;1637175;87;21043;-80
2022/04/21 05:46:15;;;;;;;13.05;11.33;;;;;;;3.68;82.17;96082.34;1611134;87;21054;-84
2022/04/21 05:48:42;;;;;;;16.32;14.23;;;;;;;3.80;81.96;96077.31;1628273;88;21010;-83
2022/04/21 05:51:09;;;;;;;16.48;14.68;;;;;;;3.93;81.95;96089.33;1650253;86;21062;-83
2022/04/21 05:53:37;;;;;;;20.90;18.57;;;;;;;4.06;81.89;96091.02;1650146;87;21453;-83
2022/04/21 05:56:08;;;;;;;18.32;15.95;;;;;;;4.21;82.03;96092.11;1649833;87;21098;-83
2022/04/21 05:58:36;;;;;;;28.47;22.77;;;;;;;4.37;81.97;96094.47;1649759;87;21034;-83
2022/04/21 06:01:04;;;;;;;26.85;22.25;;;;;;;4.54;81.35;96089.77;1649864;86;21045;-83
2022/04/21 06:03:30;;;;;;;21.40;18.80;;;;;;;4.67;80.93;96091.94;1649918;87;21018;-84
2022/04/21 06:05:56;;;;;;;23.42;20.95;;;;;;;4.80;81.32;96089.77;1649993;86;21115;-84
2022/04/21 06:08:21;;;;;;;24.65;19.87;;;;;;;4.89;81.14;96093.20;1640140;86;21040;-83
2022/04/21 06:10:47;;;;;;;27.20;22.25;;;;;;;5.01;81.12;96093.24;1638356;87;20979;-83
2022/04/21 06:13:15;;;;;;;27.20;20.70;;;;;;;5.18;80.90;96097.98;1648427;87;21342;-84
2022/04/21 06:15:40;;;;;;;28.77;22.87;;;;;;;5.27;80.05;96099.16;1632561;87;21064;-87
2022/04/21 06:18:07;;;;;;;25.82;22.07;;;;;;;5.34;79.96;96094.98;1623473;87;21042;-84
2022/04/21 06:20:35;;;;;;;27.87;21.37;;;;;;;5.48;79.95;96094.87;1623310;88;21085;-83
2022/04/21 06:23:00;;;;;;;29.07;22.27;;;;;;;5.62;79.54;96089.59;1650347;86;21388;-84
2022/04/21 06:25:26;;;;;;;29.32;23.35;;;;;;;5.76;79.43;96089.47;1649997;87;21100;-84
2022/04/21 06:27:52;;;;;;;31.45;24.50;;;;;;;5.86;79.27;96092.23;1650042;86;21069;-83
2022/04/21 06:30:19;;;;;;;26.52;22.27;;;;;;;5.95;78.88;96096.45;1650023;86;21377;-84
2022/04/21 06:32:45;;;;;;;30.43;23.65;;;;;;;5.97;78.49;96090.64;1649314;86;21409;-83
2022/04/21 06:35:11;;;;;;;27.35;23.12;;;;;;;6.01;78.55;96094.50;1618973;89;20975;-84
2022/04/21 06:37:37;;;;;;;26.48;22.98;;;;;;;6.05;78.13;96090.34;1618827;89;21138;-83
2022/04/21 06:40:04;;;;;;;27.90;22.60;;;;;;;6.11;78.41;96096.13;1618867;89;21051;-83
2022/04/21 06:42:30;;;;;;;43.17;34.85;;;;;;;6.14;77.54;96094.52;1637457;86;20990;-84
2022/04/21 06:50:24;;;;;;;22.40;19.70;;;;;;;6.40;77.38;96102.11;1629794;87;20983;-84
2022/04/21 06:52:50;;;;;;;25.90;20.50;;;;;;;6.45;76.82;96095.97;1644973;87;21023;-84
2022/04/21 06:55:16;;;;;;;22.52;19.62;;;;;;;6.53;76.87;96100.65;1644977;87;21066;-84
2022/04/21 06:57:41;;;;;;;22.37;19.20;;;;;;;6.57;76.13;96099.34;1644914;87;21334;-83
2022/04/21 07:00:09;;;;;;;23.30;19.87;;;;;;;6.53;75.53;96105.00;1644791;87;21063;-84
2022/04/21 07:02:38;;;;;;;24.82;20.97;;;;;;;6.53;75.82;96104.52;1631333;87;21014;-84
2022/04/21 07:05:12;;;;;;;27.58;23.07;;;;;;;6.54;76.37;96097.58;1625485;87;21392;-83
2022/04/21 07:07:42;;;;;;;25.43;22.32;;;;;;;6.60;76.88;96107.24;1640921;87;20968;-84
2022/04/21 07:10:10;;;;;;;27.45;22.52;;;;;;;6.65;75.60;96101.58;1617728;87;20987;-83
2022/04/21 07:12:35;;;;;;;29.37;23.70;;;;;;;6.68;75.63;96103.38;1633569;87;21122;-83
2022/04/21 07:15:04;;;;;;;28.00;22.98;;;;;;;6.74;75.33;96104.48;1627377;87;21492;-84
2022/04/21 07:17:29;;;;;;;25.60;22.13;;;;;;;6.79;75.29;96103.50;1636996;87;20983;-83
2022/04/21 07:19:56;;;;;;;26.23;22.30;;;;;;;6.83;75.29;96101.73;1636593;87;21006;-84
2022/04/21 07:22:25;;;;;;;27.70;24.15;;;;;;;6.84;74.33;96092.20;1638451;87;21474;-83
2022/04/21 07:24:50;;;;;;;28.15;23.57;;;;;;;6.85;74.25;96100.27;1626731;87;21054;-83
2022/04/21 07:27:15;;;;;;;26.27;23.02;;;;;;;6.91;74.60;96097.02;1641045;87;21390;-83
2022/04/21 07:29:42;;;;;;;29.70;24.50;;;;;;;6.95;74.15;96098.77;1635836;87;21054;-84
2022/04/21 07:32:08;;;;;;;27.27;22.55;;;;;;;7.03;74.87;96097.48;1632260;87;20987;-83
2022/04/21 07:34:34;;;;;;;24.15;20.72;;;;;;;7.12;74.36;96093.39;1639036;87;21062;-83
2022/04/21 07:37:00;;;;;;;27.40;22.20;;;;;;;7.22;73.97;96096.59;1628647;87;21000;-83
2022/04/21 07:39:26;;;;;;;24.60;20.57;;;;;;;7.32;73.74;96095.57;1628190;87;21387;-83
2022/04/21 07:41:52;;;;;;;24.60;19.77;;;;;;;7.40;72.72;96097.64;1635790;87;21026;-83
2022/04/21 07:44:18;;;;;;;21.87;19.27;;;;;;;7.47;72.14;96095.98;1635019;87;21440;-83
2022/04/21 07:46:44;;;;;;;23.98;18.57;;;;;;;7.55;72.30;96099.03;1611137;88;21058;-84
2022/04/21 07:53:13;;;;;;;19.80;17.73;;;;;;;7.67;70.51;96104.14;1590507;89;21071;-84
2022/04/21 07:54:21;;;;;;;21.45;19.15;;;;;;;7.68;70.80;96105.75;1615054;88;20983;-84
2022/04/21 07:56:47;;;;;;;23.75;21.15;;;;;;;7.69;69.65;96112.53;1620674;88;21062;-85
2022/04/21 07:59:13;;;;;;;24.60;19.48;;;;;;;7.67;69.87;96108.03;1617982;88;21438;-87
2022/04/21 08:01:39;;;;;;;23.83;21.17;;;;;;;7.70;70.71;96110.75;1622494;87;20991;-84
2022/04/21 08:04:05;;;;;;;23.62;20.40;;;;;;;7.76;70.73;96110.87;1623424;87;20975;-86
2022/04/21 08:06:31;;;;;;;21.12;18.82;;;;;;;7.81;70.32;96118.94;1621566;86;21002;-89
2022/04/21 08:08:57;;;;;;;24.02;19.75;;;;;;;7.92;70.20;96116.92;1619844;88;22041;-86
2022/04/21 08:11:22;;;;;;;24.35;20.10;;;;;;;8.02;69.73;96116.22;1618944;88;21023;-85
2022/04/21 08:13:48;;;;;;;22.48;19.40;;;;;;;8.06;69.10;96118.77;1622571;87;21034;-84
2022/04/21 08:16:14;;;;;;;21.30;18.07;;;;;;;8.11;70.17;96117.27;1616519;88;21374;-84
2022/04/21 08:18:40;;;;;;;29.45;23.38;;;;;;;8.17;68.87;96117.09;1614249;88;20979;-84
2022/04/21 08:21:06;;;;;;;24.23;20.55;;;;;;;8.27;69.21;96116.84;1615217;87;20999;-84
2022/04/21 08:23:36;;;;;;;27.17;21.77;;;;;;;8.35;68.75;96113.73;1634575;88;21746;-85
2022/04/21 08:34:14;;;;;;;22.02;18.00;;;;;;;8.52;68.53;96112.31;1612181;88;21062;-85
2022/04/21 08:36:39;;;;;;;23.12;20.32;;;;;;;8.64;68.62;96114.80;1631303;88;21374;-85
2022/04/21 08:39:05;;;;;;;24.12;20.32;;;;;;;8.69;67.47;96117.17;1638177;87;21010;-83
2022/04/21 08:41:31;;;;;;;23.85;21.05;;;;;;;8.74;67.24;96111.45;1617549;87;21011;-84
2022/04/21 08:43:57;;;;;;;21.93;18.60;;;;;;;8.85;67.53;96109.73;1614120;88;21019;-83
2022/04/21 08:46:25;;;;;;;21.55;18.25;;;;;;;8.96;66.23;96108.01;1615497;88;20972;-84
2022/04/21 08:48:52;;;;;;;21.20;18.27;;;;;;;9.10;66.33;96111.56;1621084;87;21429;-86
2022/04/21 08:51:20;;;;;;;20.70;18.27;;;;;;;9.23;64.84;96108.34;1616396;87;21041;-85
2022/04/21 08:53:45;;;;;;;21.25;18.67;;;;;;;9.31;65.90;96110.86;1616751;87;21001;-84
2022/04/21 08:56:12;;;;;;;23.67;18.95;;;;;;;9.36;64.38;96108.52;1628418;87;20971;-85
2022/04/21 08:58:38;;;;;;;24.50;21.48;;;;;;;9.44;64.47;96104.55;1624264;87;21466;-85
2022/04/21 09:01:03;;;;;;;22.60;19.98;;;;;;;9.52;64.05;96113.51;1628044;87;21058;-85
2022/04/21 09:03:33;;;;;;;21.80;19.40;;;;;;;9.57;63.31;96105.98;1627420;87;21019;-85
2022/04/21 09:05:57;;;;;;;24.37;21.80;;;;;;;9.56;62.23;96106.16;1626294;86;20986;-85
2022/04/21 09:08:26;;;;;;;23.30;20.82;;;;;;;9.54;63.75;96105.05;1628185;87;21041;-84
2022/04/21 09:11:07;;;;;;;28.92;20.95;;;;;;;9.70;63.83;96107.13;1614563;87;21172;-85
2022/04/21 09:13:38;;;;;;;24.27;20.80;;;;;;;9.80;62.69;96104.55;1623603;87;21002;-84
2022/04/21 09:16:07;;;;;;;24.87;20.90;;;;;;;9.85;63.30;96107.89;1619539;87;21055;-85
2022/04/21 09:18:44;;;;;;;22.40;19.98;;;;;;;9.91;62.80;96100.16;1613762;87;21136;-85
2022/04/21 09:21:15;;;;;;;16.25;14.53;;;;;;;10.06;62.73;96097.52;1625995;87;21066;-85
2022/04/21 09:23:45;;;;;;;23.25;19.17;;;;;;;10.17;61.51;96095.73;1620003;87;21094;-85
2022/04/21 09:26:15;;;;;;;23.67;20.77;;;;;;;10.20;61.88;96098.45;1613935;87;21031;-85
2022/04/21 09:28:41;;;;;;;23.57;20.68;;;;;;;10.31;61.92;96096.70;1617800;87;21057;-84
2022/04/21 09:31:09;;;;;;;20.48;17.98;;;;;;;10.39;61.67;96099.64;1626133;87;21044;-85
2022/04/21 09:33:40;;;;;;;19.23;17.00;;;;;;;10.46;60.74;96107.02;1617324;87;21127;-85
2022/04/21 09:36:07;;;;;;;19.97;17.87;;;;;;;10.51;61.21;96099.45;1613220;89;21094;-82
2022/04/21 09:38:35;;;;;;;16.75;14.95;;;;;;;10.60;61.35;96104.03;1616482;87;21039;-82
2022/04/21 09:41:12;;;;;;;17.02;14.40;;;;;;;10.64;58.83;96102.16;1630277;87;20964;-83
2022/04/21 09:43:39;;;;;;;16.82;15.00;;;;;;;10.60;58.99;96097.53;1620020;87;21069;-82
2022/04/21 09:46:16;;;;;;;17.25;14.68;;;;;;;10.57;58.09;96103.08;1624034;87;21362;-83
2022/04/21 09:48:43;;;;;;;20.17;15.43;;;;;;;10.53;58.34;96103.46;1617813;87;21071;-82
2022/04/21 09:51:17;;;;;;;14.43;12.93;;;;;;;10.50;58.77;96099.95;1620110;87;21026;-82
2022/04/21 09:54:02;;;;;;;14.15;12.75;;;;;;;10.60;58.38;96097.53;1617409;87;21058;-82
2022/04/21 09:56:39;;;;;;;14.20;12.40;;;;;;;10.65;59.43;96099.86;1626863;87;21082;-82
2022/04/21 09:59:10;;;;;;;15.32;12.58;;;;;;;10.59;57.34;96099.33;1626656;87;20975;-82
2022/04/21 10:01:41;;;;;;;15.08;13.58;;;;;;;10.64;59.21;96091.77;1631348;87;20990;-82
2022/04/21 10:04:09;;;;;;;16.23;14.50;;;;;;;10.73;56.42;96091.91;1628428;87;21481;-82
2022/04/21 10:06:40;;;;;;;14.28;12.18;;;;;;;10.74;57.63;96092.25;1616929;87;21078;-83
2022/04/21 10:09:07;;;;;;;16.05;13.35;;;;;;;10.80;56.76;96093.27;1619323;86;21390;-83
2022/04/21 10:11:32;;;;;;;15.05;13.45;;;;;;;10.76;56.46;96095.45;1616895;87;20993;-82
2022/04/21 10:13:58;;;;;;;15.23;13.35;;;;;;;10.71;56.38;96086.10;1625045;87;20991;-83
2022/04/21 10:16:30;;;;;;;14.93;13.18;;;;;;;10.83;57.71;96088.49;1627170;87;21393;-83
2022/04/21 10:18:58;;;;;;;13.98;12.30;;;;;;;10.86;55.64;96083.41;1621142;87;20983;-83
2022/04/21 10:21:42;;;;;;;14.43;12.90;;;;;;;10.81;55.34;96082.69;1601178;87;20998;-82
2022/04/21 10:24:09;;;;;;;15.28;12.68;;;;;;;10.83;56.90;96085.09;1610059;87;21038;-82
2022/04/21 10:26:40;;;;;;;13.95;12.30;;;;;;;10.96;56.43;96081.78;1604787;89;21011;-82
2022/04/21 10:29:12;;;;;;;13.25;11.90;;;;;;;11.03;56.04;96078.70;1596323;90;21518;-82
2022/04/21 10:31:56;;;;;;;13.40;11.40;;;;;;;11.10;56.55;96076.97;1613098;87;20969;-82
2022/04/21 10:34:41;;;;;;;13.20;11.65;;;;;;;11.13;55.75;96076.08;1620293;87;21043;-82
2022/04/21 10:37:16;;;;;;;12.98;11.55;;;;;;;11.20;54.48;96077.89;1603809;87;21061;-82
2022/04/21 10:40:09;;;;;;;12.60;11.25;;;;;;;11.32;57.16;96075.86;1614397;87;21040;-82
2022/04/21 10:42:57;;;;;;;13.55;12.20;;;;;;;11.54;56.17;96073.94;1614205;89;21071;-83
2022/04/21 10:45:25;;;;;;;13.65;12.25;;;;;;;11.69;56.31;96071.19;1614503;87;21029;-82
2022/04/21 10:48:12;;;;;;;12.23;10.95;;;;;;;11.80;55.96;96075.86;1614247;88;21429;-83
2022/04/21 10:50:40;;;;;;;13.80;12.35;;;;;;;11.90;56.10;96075.00;1614357;89;21106;-82
2022/04/21 10:58:47;;;;;;;8.95;7.83;;;;;;;11.94;53.59;96063.69;1620036;87;21414;-83
2022/04/21 11:01:23;;;;;;;11.63;10.43;;;;;;;12.06;54.69;96053.49;1625840;87;21378;-84
2022/04/21 11:04:19;;;;;;;9.75;8.85;;;;;;;12.14;49.78;96058.49;1614486;87;21066;-85
2022/04/21 11:06:51;;;;;;;12.65;10.93;;;;;;;12.16;53.66;96056.48;1614350;89;21014;-85
2022/04/21 11:09:42;;;;;;;12.30;10.93;;;;;;;12.20;53.97;96057.22;1593175;90;21938;-84
2022/04/21 11:12:10;;;;;;;9.78;8.75;;;;;;;12.31;53.87;96061.01;1591909;90;21015;-85
2022/04/21 11:14:37;;;;;;;10.48;9.48;;;;;;;12.37;50.31;96068.05;1604044;89;21371;-84
2022/04/21 11:17:04;;;;;;;10.28;9.18;;;;;;;12.36;52.52;96059.09;1640773;87;21039;-85
2022/04/21 11:19:35;;;;;;;9.93;8.93;;;;;;;12.45;52.50;96062.62;1620034;87;20994;-85
2022/04/21 11:22:09;;;;;;;10.50;9.50;;;;;;;12.35;51.63;96066.61;1617864;87;20994;-85
2022/04/21 11:24:59;;;;;;;10.23;9.23;;;;;;;12.35;51.42;96069.22;1618050;87;21097;-85
2022/04/21 11:27:26;;;;;;;10.75;9.65;;;;;;;12.40;52.70;96059.83;1627498;86;21031;-85
2022/04/21 11:29:52;;;;;;;11.70;10.40;;;;;;;12.43;51.76;96062.52;1615440;87;20988;-85
2022/04/21 11:32:19;;;;;;;9.20;8.28;;;;;;;12.45;50.95;96056.10;1629285;87;20952;-85
2022/04/21 11:35:06;;;;;;;12.50;11.22;;;;;;;12.45;51.25;96062.62;1622805;87;21053;-85
2022/04/21 11:37:49;;;;;;;11.48;10.28;;;;;;;12.45;50.37;96070.44;1614340;87;21378;-85
2022/04/21 11:40:21;;;;;;;12.70;11.40;;;;;;;12.45;50.85;96067.83;1622430;87;21019;-86
2022/04/21 11:42:49;;;;;;;12.25;10.18;;;;;;;12.58;51.17;96060.52;1614120;87;21078;-86
2022/04/21 11:45:24;;;;;;;13.55;12.23;;;;;;;12.56;50.90;96052.09;1633634;87;21001;-85
2022/04/21 11:47:51;;;;;;;11.18;10.00;;;;;;;12.61;52.37;96049.17;1614548;87;21422;-83
2022/04/21 11:50:28;;;;;;;12.43;11.12;;;;;;;12.85;52.81;96050.84;1633559;87;21055;-84
2022/04/21 11:52:55;;;;;;;13.28;11.75;;;;;;;12.86;50.37;96046.75;1619170;87;21066;-85
2022/04/21 11:55:27;;;;;;;12.75;11.45;;;;;;;12.81;51.08;96049.65;1625629;87;20963;-84
2022/04/21 11:57:53;;;;;;;13.38;11.97;;;;;;;12.74;50.83;96043.66;1621811;87;20971;-85
2022/04/21 12:06:28;;;;;;;13.22;11.93;;;;;;;12.87;50.81;96052.77;1626972;87;20979;-85
2022/04/21 12:08:15;;;;;;;13.20;11.85;;;;;;;12.83;51.47;96042.42;1631762;87;21046;-85
2022/04/21 12:10:41;;;;;;;13.75;12.37;;;;;;;12.83;52.35;96036.70;1629107;87;20983;-85
2022/04/21 12:13:07;;;;;;;12.15;10.85;;;;;;;12.89;51.03;96041.12;1628273;87;21027;-85
2022/04/21 12:15:33;;;;;;;12.40;11.10;;;;;;;12.97;51.55;96034.87;1622432;87;20943;-85
2022/04/21 12:18:01;;;;;;;13.03;11.73;;;;;;;13.09;51.40;96029.83;1585617;87;21545;-85